Time;durP1;ratioP1;P1;durP2;ratioP2;P2;SDS_P1;SDS_P2;PMS_P1;PMS_P2;Temp;Humidity;BMP_temperature;BMP_pressure;BME280_temperature;BME280_humidity;BME280_pressure;Samples;Min_cycle;Max_cycle;Signal;HPM_P1;HPM_P2
2022/11/21 00:03:17;;;;;;;5.40;3.33;;;;;5.20;95271.00;;;;8495528;27;20216;-76
2022/11/21 00:07:20;;;;;;;12.63;5.07;;;;;5.20;95274.00;;;;8494590;27;20214;-75
2022/11/21 00:11:23;;;;;;;5.67;3.10;;;;;5.20;95257.00;;;;8496079;27;20225;-75
2022/11/21 00:15:26;;;;;;;3.90;2.70;;;;;5.20;95261.00;;;;8494988;27;20213;-76
2022/11/21 00:20:05;;;;;;;5.17;2.87;;;;;5.20;95263.00;;;;8494670;27;20221;-76
2022/11/21 00:24:10;;;;;;;6.10;3.43;;;;;5.20;95259.00;;;;8495220;27;20249;-76
2022/11/21 00:28:13;;;;;;;3.50;2.27;;;;;5.30;95265.00;;;;8494090;27;20271;-76
2022/11/21 00:32:16;;;;;;;5.53;2.77;;;;;5.30;95260.00;;;;8494171;27;20216;-76
2022/11/21 00:36:55;;;;;;;10.67;3.30;;;;;5.30;95267.00;;;;8495081;28;20236;-77
2022/11/21 00:40:58;;;;;;;7.97;2.90;;;;;5.40;95264.00;;;;8494278;28;20217;-77
2022/11/21 00:45:01;;;;;;;9.23;3.33;;;;;5.40;95277.00;;;;8494313;28;20213;-77
2022/11/21 00:49:37;;;;;;;10.07;3.70;;;;;5.40;95276.00;;;;8495333;28;20229;-77
2022/11/21 00:53:42;;;;;;;5.07;2.80;;;;;5.50;95270.00;;;;8494064;28;20573;-77
2022/11/21 00:57:45;;;;;;;9.50;2.70;;;;;5.50;95258.00;;;;8494378;28;20657;-77
2022/11/21 01:02:28;;;;;;;11.20;3.47;;;;;5.50;95259.00;;;;8494837;28;20214;-77
2022/11/21 01:06:31;;;;;;;8.37;3.33;;;;;5.50;95261.00;;;;8493874;28;20636;-77
2022/11/21 01:10:36;;;;;;;12.17;3.47;;;;;5.60;95269.00;;;;8494377;28;20225;-78
2022/11/21 01:14:39;;;;;;;6.60;3.00;;;;;5.60;95253.00;;;;8493105;28;20711;-78
2022/11/21 01:19:07;;;;;;;10.67;3.77;;;;;5.60;95263.00;;;;8494568;28;20214;-78
2022/11/21 01:23:10;;;;;;;5.47;2.47;;;;;5.60;95263.00;;;;8481922;28;20357;-79
2022/11/21 01:27:14;;;;;;;10.97;3.37;;;;;5.70;95270.00;;;;8494208;28;20585;-79
2022/11/21 01:31:20;;;;;;;5.67;2.80;;;;;5.70;95261.00;;;;8492869;28;20233;-79
2022/11/21 01:35:24;;;;;;;6.70;3.77;;;;;5.70;95258.00;;;;8494411;28;20531;-80
2022/11/21 01:39:27;;;;;;;10.13;2.73;;;;;5.70;95264.00;;;;8493581;28;20218;-80
2022/11/21 01:44:04;;;;;;;4.57;2.17;;;;;5.80;95253.00;;;;8496955;27;20222;-80
2022/11/21 01:48:08;;;;;;;12.37;2.80;;;;;5.70;95254.00;;;;8499884;27;20218;-81
2022/11/21 01:52:16;;;;;;;9.43;2.90;;;;;5.70;95245.00;;;;8499332;27;20214;-80
2022/11/21 01:56:20;;;;;;;5.97;2.90;;;;;5.70;95240.00;;;;8498728;27;20213;-80
2022/11/21 02:00:57;;;;;;;6.83;2.00;;;;;5.60;95241.00;;;;8499762;27;20210;-80
2022/11/21 02:05:03;;;;;;;7.57;2.30;;;;;5.50;95238.00;;;;8499180;27;20216;-80
2022/11/21 02:09:38;;;;;;;6.23;2.50;;;;;5.50;95242.00;;;;8498536;27;20236;-81
2022/11/21 02:13:41;;;;;;;6.93;2.20;;;;;5.50;95245.00;;;;8498336;27;20239;-79
2022/11/21 02:17:45;;;;;;;4.07;1.50;;;;;5.50;95229.00;;;;8497935;27;20654;-81
2022/11/21 02:21:57;;;;;;;11.20;2.90;;;;;5.60;95224.00;;;;8498381;27;20229;-80
2022/11/21 02:26:27;;;;;;;5.17;2.30;;;;;5.50;95223.00;;;;8498964;27;20541;-78
2022/11/21 02:30:31;;;;;;;6.20;2.10;;;;;5.60;95222.00;;;;8498601;27;20234;-79
2022/11/21 02:34:34;;;;;;;4.73;2.50;;;;;5.60;95221.00;;;;8497805;27;20217;-79
2022/11/21 02:38:38;;;;;;;6.30;2.70;;;;;5.60;95231.00;;;;8498937;27;20278;-79
2022/11/21 02:43:19;;;;;;;6.17;1.80;;;;;5.60;95225.00;;;;8497062;27;20209;-81
2022/11/21 02:47:23;;;;;;;7.00;2.60;;;;;5.60;95216.00;;;;8497960;27;20286;-80
2022/11/21 02:51:26;;;;;;;3.73;2.73;;;;;5.70;95208.00;;;;8498400;27;20532;-80
2022/11/21 02:55:29;;;;;;;8.13;3.40;;;;;5.70;95208.00;;;;8497516;27;20222;-81
2022/11/21 02:59:33;;;;;;;8.73;3.37;;;;;5.70;95210.00;;;;8497217;27;20217;-80
2022/11/21 03:03:36;;;;;;;8.60;3.57;;;;;5.70;95205.00;;;;8497681;27;20667;-85
2022/11/21 03:08:13;;;;;;;7.17;3.07;;;;;5.70;95198.00;;;;8496537;27;20641;-86
2022/11/21 03:12:16;;;;;;;7.87;2.50;;;;;5.70;95198.00;;;;8496799;27;20225;-84
2022/11/21 03:16:21;;;;;;;6.97;3.03;;;;;5.60;95185.00;;;;8496879;27;20274;-82
2022/11/21 03:20:24;;;;;;;7.07;3.13;;;;;5.60;95195.00;;;;8496631;27;20266;-81
2022/11/21 03:24:27;;;;;;;4.73;2.37;;;;;5.50;95192.00;;;;8496661;27;20266;-82
2022/11/21 03:29:04;;;;;;;4.93;2.13;;;;;5.50;95187.00;;;;8496294;27;20227;-80
2022/11/21 03:33:09;;;;;;;3.43;2.37;;;;;5.50;95180.00;;;;8495912;27;20217;-80
2022/11/21 03:37:12;;;;;;;4.47;2.43;;;;;5.60;95190.00;;;;8496217;27;20270;-80
2022/11/21 03:45:50;;;;;;;1.83;1.53;;;;;5.60;95160.00;;;;8490208;27;20213;-80
2022/11/21 03:49:55;;;;;;;9.40;3.83;;;;;5.60;95167.00;;;;8496073;27;20666;-81
2022/11/21 03:53:58;;;;;;;4.67;1.80;;;;;5.60;95160.00;;;;8495115;27;20278;-80
2022/11/21 03:58:01;;;;;;;8.80;2.53;;;;;5.70;95170.00;;;;8495700;27;20226;-80
2022/11/21 04:02:38;;;;;;;5.87;2.60;;;;;5.70;95170.00;;;;8495567;27;20265;-79
2022/11/21 04:06:43;;;;;;;4.03;2.60;;;;;5.70;95159.00;;;;8494837;27;20326;-79
2022/11/21 04:10:47;;;;;;;10.03;2.80;;;;;5.80;95178.00;;;;8494253;27;20214;-80
2022/11/21 04:14:50;;;;;;;5.67;2.43;;;;;5.80;95164.00;;;;8495196;27;20222;-82
2022/11/21 04:19:27;;;;;;;3.10;1.60;;;;;5.80;95172.00;;;;8494739;27;20654;-82
2022/11/21 04:23:32;;;;;;;8.07;2.53;;;;;5.70;95170.00;;;;8494004;27;20214;-81
2022/11/21 04:27:35;;;;;;;8.77;3.33;;;;;5.70;95176.00;;;;8495394;27;20263;-80
2022/11/21 04:31:38;;;;;;;5.47;2.70;;;;;5.70;95176.00;;;;8494254;28;20225;-81
2022/11/21 04:36:03;;;;;;;7.87;2.47;;;;;5.70;95175.00;;;;8495350;28;20271;-81
2022/11/21 04:40:09;;;;;;;6.93;3.10;;;;;5.70;95167.00;;;;8494403;28;20210;-81
2022/11/21 04:44:12;;;;;;;6.73;2.83;;;;;5.70;95166.00;;;;8495098;28;20218;-80
2022/11/21 04:48:49;;;;;;;5.40;2.57;;;;;5.70;95164.00;;;;8490275;28;20214;-82
2022/11/21 04:52:53;;;;;;;5.23;2.50;;;;;5.50;95162.00;;;;8491669;28;20244;-81
2022/11/21 04:56:58;;;;;;;8.63;3.07;;;;;5.50;95162.00;;;;8493866;28;20229;-82
2022/11/21 05:01:35;;;;;;;9.23;2.20;;;;;5.40;95163.00;;;;8494429;28;20663;-82
2022/11/21 05:06:09;;;;;;;6.43;2.53;;;;;5.30;95177.00;;;;8493487;28;20221;-81
2022/11/21 05:15:05;;;;;;;9.17;2.50;;;;;5.40;95160.00;;;;8459349;28;20214;-80
2022/11/21 05:19:38;;;;;;;8.00;2.80;;;;;5.50;95167.00;;;;8498752;27;20214;-80
2022/11/21 05:24:15;;;;;;;7.50;2.27;;;;;5.50;95176.00;;;;8499381;27;20624;-81
2022/11/21 05:28:18;;;;;;;5.77;2.37;;;;;5.60;95176.00;;;;8498973;27;20222;-79
2022/11/21 05:32:23;;;;;;;3.63;2.37;;;;;5.60;95182.00;;;;8500673;27;20581;-80
2022/11/21 05:36:58;;;;;;;4.33;2.10;;;;;5.60;95157.00;;;;8499020;27;20353;-79
2022/11/21 05:41:41;;;;;;;3.13;1.97;;;;;5.50;95163.00;;;;8499045;27;20228;-80
2022/11/21 05:46:17;;;;;;;2.10;1.90;;;;;5.50;95162.00;;;;8497714;27;20530;-78
2022/11/21 05:50:53;;;;;;;3.20;2.23;;;;;5.50;95168.00;;;;8498366;27;20262;-83
2022/11/21 05:55:18;;;;;;;6.90;1.80;;;;;5.50;95153.00;;;;8498878;27;20264;-80
2022/11/21 05:59:54;;;;;;;3.50;1.60;;;;;5.50;95158.00;;;;8498266;27;20214;-81
2022/11/21 06:04:32;;;;;;;3.20;2.03;;;;;5.50;95160.00;;;;8499597;27;20229;-80
2022/11/21 06:09:08;;;;;;;3.43;1.90;;;;;5.50;95160.00;;;;8499392;27;20209;-80
2022/11/21 06:13:47;;;;;;;4.03;2.07;;;;;5.50;95161.00;;;;8498362;27;20218;-81
2022/11/21 06:18:21;;;;;;;2.23;1.87;;;;;5.50;95152.00;;;;8497474;27;20271;-81
2022/11/21 06:22:55;;;;;;;3.23;1.60;;;;;5.40;95149.00;;;;8498998;27;20614;-81
2022/11/21 06:27:32;;;;;;;1.10;1.00;;;;;5.40;95137.00;;;;8497562;27;20251;-81
2022/11/21 06:31:37;;;;;;;2.57;1.37;;;;;5.30;95154.00;;;;8497530;27;20268;-81
2022/11/21 06:36:06;;;;;;;1.60;1.50;;;;;5.30;95152.00;;;;8496809;27;20230;-82
2022/11/21 06:40:40;;;;;;;5.27;1.90;;;;;5.20;95154.00;;;;8496205;27;20214;-82
2022/11/21 06:45:17;;;;;;;4.00;1.70;;;;;5.20;95138.00;;;;8496807;27;20218;-80
2022/11/21 06:49:55;;;;;;;2.27;1.40;;;;;5.10;95143.00;;;;8495827;27;20222;-79
2022/11/21 06:54:30;;;;;;;2.63;1.43;;;;;5.00;95142.00;;;;8495518;27;20277;-81
2022/11/21 06:59:07;;;;;;;4.47;1.73;;;;;5.00;95153.00;;;;8495509;27;20245;-80
2022/11/21 07:03:45;;;;;;;3.73;1.70;;;;;5.00;95166.00;;;;8494542;27;21326;-80
2022/11/21 07:08:23;;;;;;;5.17;2.00;;;;;5.10;95167.00;;;;8496027;27;20218;-80
2022/11/21 07:17:33;;;;;;;2.87;2.00;;;;;5.20;95184.00;;;;8494404;27;20627;-80
2022/11/21 07:22:10;;;;;;;2.30;1.87;;;;;5.20;95194.00;;;;8494417;27;20222;-81
2022/11/21 07:26:49;;;;;;;6.00;2.10;;;;;5.30;95202.00;;;;8493857;27;20225;-80
2022/11/21 07:31:22;;;;;;;7.20;2.30;;;;;5.40;95203.00;;;;8495128;27;20226;-82
2022/11/21 07:35:59;;;;;;;5.97;2.10;;;;;5.50;95203.00;;;;8496040;27;20524;-82
2022/11/21 07:40:36;;;;;;;7.43;2.40;;;;;5.70;95202.00;;;;8494010;27;20217;-82
2022/11/21 07:45:13;;;;;;;6.17;2.27;;;;;5.80;95224.00;;;;8494895;27;20218;-81
2022/11/21 07:49:51;;;;;;;4.83;2.20;;;;;5.90;95223.00;;;;8496269;27;20580;-81
2022/11/21 07:54:25;;;;;;;7.20;2.60;;;;;5.90;95212.00;;;;8493764;27;20218;-82
2022/11/21 07:59:02;;;;;;;5.60;2.20;;;;;6.00;95221.00;;;;8495024;27;20251;-83
2022/11/21 08:03:39;;;;;;;10.67;2.47;;;;;6.00;95208.00;;;;8495035;27;20221;-81
2022/11/21 08:08:17;;;;;;;6.30;2.20;;;;;5.80;95218.00;;;;8495107;27;20225;-81
2022/11/21 08:12:51;;;;;;;4.47;1.80;;;;;5.80;95206.00;;;;8494153;27;20226;-81
2022/11/21 08:17:28;;;;;;;5.70;2.50;;;;;5.80;95212.00;;;;8494013;27;20589;-81
2022/11/21 08:22:05;;;;;;;6.33;2.47;;;;;5.70;95216.00;;;;8484153;27;20210;-83
2022/11/21 08:26:43;;;;;;;3.13;2.17;;;;;5.80;95204.00;;;;8493380;27;20241;-83
2022/11/21 08:31:17;;;;;;;8.60;2.00;;;;;5.90;95201.00;;;;8494384;27;20557;-84
2022/11/21 08:35:54;;;;;;;5.43;2.07;;;;;6.00;95209.00;;;;8494387;28;20275;-83
2022/11/21 08:40:31;;;;;;;2.03;1.17;;;;;6.20;95215.00;;;;8493181;28;20214;-83
2022/11/21 08:45:07;;;;;;;4.73;2.50;;;;;6.40;95225.00;;;;8494316;28;20228;-80
2022/11/21 08:49:41;;;;;;;8.50;2.83;;;;;6.80;95227.00;;;;8494558;28;20218;-80
2022/11/21 08:54:15;;;;;;;6.67;1.70;;;;;7.10;95231.00;;;;8499639;27;20221;-84
2022/11/21 08:58:52;;;;;;;6.73;2.33;;;;;7.30;95235.00;;;;8500068;27;20217;-85
2022/11/21 09:03:31;;;;;;;5.10;2.20;;;;;7.50;95232.00;;;;8501201;27;20271;-85
2022/11/21 09:08:08;;;;;;;34.03;26.87;;;;;7.50;95226.00;;;;8500374;27;20254;-83
2022/11/21 09:12:45;;;;;;;7.93;5.93;;;;;7.40;95238.00;;;;8499743;27;20287;-82
2022/11/21 09:21:59;;;;;;;11.37;7.77;;;;;7.20;95235.00;;;;8499635;27;20241;-83
2022/11/21 09:26:33;;;;;;;11.37;8.53;;;;;7.10;95242.00;;;;8498443;27;20361;-82
2022/11/21 09:31:10;;;;;;;25.67;19.63;;;;;7.10;95243.00;;;;8499435;27;20664;-82
2022/11/21 09:35:47;;;;;;;207.80;185.50;;;;;7.20;95249.00;;;;8499782;27;20222;-83
2022/11/21 09:40:26;;;;;;;13.20;5.03;;;;;7.20;95250.00;;;;8498379;27;20222;-83
2022/11/21 09:45:00;;;;;;;4.20;2.58;;;;;7.20;95260.00;;;;8498557;27;20221;-82
2022/11/21 09:49:41;;;;;;;5.23;3.33;;;;;7.30;95245.00;;;;8499036;27;20639;-83
2022/11/21 09:54:18;;;;;;;7.53;4.10;;;;;7.50;95253.00;;;;8498900;27;20230;-81
2022/11/21 09:58:58;;;;;;;5.50;2.87;;;;;7.80;95238.00;;;;8498089;27;20221;-81
2022/11/21 10:03:30;;;;;;;5.80;3.10;;;;;8.00;95234.00;;;;8497944;27;20259;-81
2022/11/21 10:08:08;;;;;;;7.57;3.90;;;;;8.00;95237.00;;;;8498404;27;20210;-83
2022/11/21 10:12:47;;;;;;;12.73;5.03;;;;;8.00;95243.00;;;;8487456;27;20247;-81
2022/11/21 10:17:18;;;;;;;5.07;2.40;;;;;7.90;95237.00;;;;8498614;27;20267;-81
2022/11/21 10:21:43;;;;;;;5.23;1.90;;;;;7.70;95243.00;;;;8499094;27;20264;-82
2022/11/21 10:26:13;;;;;;;2.40;2.20;;;;;7.50;95249.00;;;;8497700;27;20551;-81
2022/11/21 10:30:35;;;;;;;5.23;2.57;;;;;7.50;95238.00;;;;8498370;27;20232;-80
2022/11/21 10:34:39;;;;;;;61.70;27.43;;;;;7.90;95233.00;;;;8498689;27;20225;-79
2022/11/21 10:39:17;;;;;;;368.43;110.17;;;;;8.20;95224.00;;;;8496853;27;20214;-81
2022/11/21 10:48:23;;;;;;;348.53;100.83;;;;;8.50;95208.00;;;;8502227;27;20671;-80
2022/11/21 10:54:31;;;;;;;425.27;125.50;;;;;8.60;95209.00;;;;8500914;27;20229;-79
2022/11/21 11:03:05;;;;;;;826.17;236.45;;;;;9.30;95193.00;;;;8501947;27;20653;-79
2022/11/21 11:07:23;;;;;;;468.92;123.75;;;;;9.40;95189.00;;;;8500306;27;20191;-79
2022/11/21 11:11:57;;;;;;;1261.55;324.98;;;;;9.50;95192.00;;;;8501792;27;20222;-80
2022/11/21 11:16:35;;;;;;;296.33;78.65;;;;;9.30;95191.00;;;;8500916;27;20232;-80
2022/11/21 11:21:14;;;;;;;83.75;28.65;;;;;9.10;95193.00;;;;8500266;27;20182;-78
2022/11/21 11:25:48;;;;;;;428.20;146.60;;;;;8.90;95193.00;;;;8499684;27;20691;-77
2022/11/21 11:30:26;;;;;;;166.27;50.95;;;;;8.60;95186.00;;;;8500424;27;20238;-77
2022/11/21 11:34:39;;;;;;;471.98;153.43;;;;;8.60;95184.00;;;;8499792;27;20221;-77
2022/11/21 11:39:09;;;;;;;1171.82;430.83;;;;;8.70;95178.00;;;;8499353;27;20223;-77
2022/11/21 11:48:18;;;;;;;19.92;13.93;;;;;8.80;95155.00;;;;8499067;27;20197;-77
2022/11/21 11:52:52;;;;;;;5.33;3.20;;;;;8.80;95159.00;;;;8499796;27;20559;-77
2022/11/21 11:57:32;;;;;;;10.87;4.77;;;;;8.90;95166.00;;;;8499534;27;20569;-76
2022/11/21 12:01:39;;;;;;;4.35;2.38;;;;;8.90;95159.00;;;;8499021;27;20247;-77
2022/11/21 12:06:13;;;;;;;6.82;2.03;;;;;9.00;95172.00;;;;8498673;27;20186;-77
2022/11/21 12:15:51;;;;;;;9.90;2.90;;;;;9.30;95151.00;;;;8498215;27;20251;-77
2022/11/21 12:20:13;;;;;;;5.30;1.98;;;;;9.30;95141.00;;;;8499718;27;20202;-82
2022/11/21 12:24:41;;;;;;;2.30;2.10;;;;;9.30;95136.00;;;;8499982;27;20239;-78
2022/11/21 12:29:24;;;;;;;2.35;2.15;;;;;9.20;95139.00;;;;8498872;27;20527;-80
2022/11/21 12:34:01;;;;;;;5.68;1.83;;;;;9.30;95128.00;;;;8497943;27;20231;-80
2022/11/21 12:38:39;;;;;;;5.22;1.75;;;;;9.20;95125.00;;;;8498245;28;20190;-79
2022/11/21 12:43:18;;;;;;;4.80;1.73;;;;;8.90;95121.00;;;;8498996;28;20732;-80
2022/11/21 12:57:55;;;;;;;2.75;2.17;;;;;8.60;95106.00;;;;8498260;28;20190;-80
2022/11/21 13:02:28;;;;;;;3.85;1.98;;;;;9.10;95103.00;;;;8498864;28;20547;-80
2022/11/21 13:06:55;;;;;;;2.83;1.92;;;;;9.30;95109.00;;;;8498653;28;20615;-80
2022/11/21 13:16:11;;;;;;;5.95;1.90;;;;;9.80;95090.00;;;;8497638;28;20226;-80
2022/11/21 13:20:46;;;;;;;8.82;1.77;;;;;9.90;95087.00;;;;8497117;28;20188;-80
2022/11/21 13:25:20;;;;;;;7.57;1.63;;;;;9.90;95082.00;;;;8497356;28;20222;-81
2022/11/21 13:30:13;;;;;;;4.25;1.58;;;;;9.90;95080.00;;;;8497351;28;20188;-80
2022/11/21 13:34:37;;;;;;;7.03;1.98;;;;;9.70;95069.00;;;;8326224;28;20223;-80
2022/11/21 13:44:15;;;;;;;1.65;1.55;;;;;9.20;95069.00;;;;8504663;27;20198;-81
2022/11/21 13:48:57;;;;;;;6.25;1.70;;;;;9.10;95048.00;;;;8503303;27;20201;-80
2022/11/21 13:53:44;;;;;;;3.63;1.60;;;;;9.10;95053.00;;;;8502441;27;20221;-80
2022/11/21 13:58:18;;;;;;;3.53;1.40;;;;;9.20;95045.00;;;;8502963;27;20178;-80
2022/11/21 14:02:54;;;;;;;4.03;1.73;;;;;9.20;95050.00;;;;8503739;27;20190;-81
2022/11/21 14:07:27;;;;;;;5.45;1.70;;;;;9.10;95050.00;;;;8502358;27;20194;-81
2022/11/21 14:11:36;;;;;;;4.20;1.42;;;;;9.00;95041.00;;;;8502766;27;20219;-80
2022/11/21 14:16:16;;;;;;;2.85;2.05;;;;;8.80;95039.00;;;;8502431;27;20249;-80
2022/11/21 14:20:49;;;;;;;6.45;1.40;;;;;8.70;95037.00;;;;8502229;27;20220;-80
2022/11/21 14:24:54;;;;;;;2.38;1.33;;;;;8.60;95023.00;;;;8502321;27;20202;-81
2022/11/21 14:29:38;;;;;;;2.33;1.70;;;;;8.40;95026.00;;;;8503325;27;20194;-80
2022/11/21 14:34:03;;;;;;;5.32;1.60;;;;;8.20;95026.00;;;;8502006;27;20516;-80
2022/11/21 14:43:38;;;;;;;1.40;1.30;;;;;8.00;95024.00;;;;8476975;27;20231;-80
2022/11/21 14:47:48;;;;;;;2.23;1.60;;;;;8.00;95032.00;;;;8433873;28;20579;-81
2022/11/21 14:51:57;;;;;;;4.07;1.50;;;;;7.80;95019.00;;;;8433475;28;20194;-80
2022/11/21 14:56:26;;;;;;;1.50;1.40;;;;;7.60;95014.00;;;;8433852;28;20223;-80
2022/11/21 15:00:30;;;;;;;4.53;1.33;;;;;7.40;95018.00;;;;8433811;28;20221;-80
2022/11/21 15:05:00;;;;;;;1.67;1.30;;;;;7.20;95023.00;;;;8432304;28;20207;-80
2022/11/21 15:09:28;;;;;;;1.67;1.37;;;;;6.90;95021.00;;;;8434124;28;20180;-80
2022/11/21 15:13:57;;;;;;;1.83;1.33;;;;;6.70;95020.00;;;;8433097;28;20211;-80
2022/11/21 15:18:21;;;;;;;2.33;1.50;;;;;6.30;95005.00;;;;8432766;28;20187;-80
2022/11/21 15:22:56;;;;;;;4.37;1.70;;;;;5.90;94984.00;;;;8434311;28;20187;-80
2022/11/21 15:27:31;;;;;;;6.23;1.97;;;;;5.50;94971.00;;;;8432161;28;20722;-80
2022/11/21 15:32:06;;;;;;;3.63;2.27;;;;;5.30;94970.00;;;;8428252;28;20199;-81
2022/11/21 15:36:43;;;;;;;2.60;2.27;;;;;5.00;94957.00;;;;8431086;28;20276;-83
2022/11/21 15:46:20;;;;;;;7.23;2.93;;;;;4.50;94933.00;;;;8428267;28;20261;-86
2022/11/21 15:50:55;;;;;;;9.80;4.40;;;;;4.20;94914.00;;;;8432785;28;20241;-83
2022/11/21 15:55:01;;;;;;;10.53;4.17;;;;;4.00;94897.00;;;;8430638;28;20669;-82
2022/11/21 15:59:38;;;;;;;7.47;3.63;;;;;3.90;94894.00;;;;8432007;28;20198;-82
2022/11/21 16:04:14;;;;;;;7.53;3.47;;;;;3.80;94892.00;;;;8431342;28;20192;-82
2022/11/21 16:08:47;;;;;;;5.23;3.40;;;;;3.70;94893.00;;;;8431664;28;20640;-82
2022/11/21 16:13:24;;;;;;;13.80;4.83;;;;;3.60;94900.00;;;;8431418;28;20226;-83
2022/11/21 16:17:27;;;;;;;20.27;7.57;;;;;3.50;94905.00;;;;8432156;28;20256;-82
2022/11/21 16:22:06;;;;;;;16.57;6.33;;;;;3.40;94905.00;;;;8430942;28;20607;-81
2022/11/21 16:26:41;;;;;;;15.23;4.97;;;;;3.20;94903.00;;;;8431079;28;20300;-79
2022/11/21 16:31:18;;;;;;;9.20;4.70;;;;;3.00;94889.00;;;;8430875;28;20209;-81
2022/11/21 16:35:55;;;;;;;7.33;3.33;;;;;2.90;94875.00;;;;8430077;28;20281;-78
2022/11/21 16:45:32;;;;;;;14.00;6.07;;;;;2.90;94864.00;;;;8429705;28;20522;-80
2022/11/21 16:50:06;;;;;;;16.93;5.80;;;;;2.90;94853.00;;;;8431311;28;20226;-80
2022/11/21 16:54:40;;;;;;;8.03;3.63;;;;;2.90;94847.00;;;;8430064;28;20685;-80
2022/11/21 16:59:17;;;;;;;10.03;5.00;;;;;2.90;94848.00;;;;8429926;28;20205;-80
2022/11/21 17:03:55;;;;;;;268.00;211.50;;;;;3.00;94849.00;;;;8430738;28;20221;-81
2022/11/21 17:07:58;;;;;;;25.60;13.63;;;;;3.00;94849.00;;;;8430412;28;20197;-81
2022/11/21 17:12:01;;;;;;;20.03;9.23;;;;;2.90;94858.00;;;;8430487;28;20199;-81
2022/11/21 17:16:40;;;;;;;16.33;7.80;;;;;2.70;94844.00;;;;8437370;28;20583;-81
2022/11/21 17:21:13;;;;;;;19.83;8.13;;;;;2.60;94842.00;;;;8436875;28;20577;-80
2022/11/21 17:25:18;;;;;;;18.43;8.77;;;;;2.50;94846.00;;;;8435985;28;20219;-81
2022/11/21 17:29:21;;;;;;;15.63;7.87;;;;;2.40;94839.00;;;;8437041;28;20632;-80
2022/11/21 17:33:58;;;;;;;16.43;7.07;;;;;2.20;94829.00;;;;8436345;28;20215;-80
2022/11/21 17:38:34;;;;;;;18.07;7.63;;;;;2.00;94815.00;;;;8435393;28;20205;-85
2022/11/21 17:43:13;;;;;;;17.23;7.80;;;;;2.10;94799.00;;;;8432408;28;20252;-81
2022/11/21 17:47:16;;;;;;;13.23;6.20;;;;;2.40;94798.00;;;;8435782;28;20201;-79
2022/11/21 17:51:50;;;;;;;300.97;90.47;;;;;2.60;94801.00;;;;8435154;28;20193;-77
2022/11/21 17:56:27;;;;;;;14.10;7.83;;;;;2.80;94780.00;;;;8435839;28;20668;-77
2022/11/21 18:01:04;;;;;;;15.10;5.77;;;;;3.00;94769.00;;;;8435771;28;20190;-77
2022/11/21 18:05:38;;;;;;;13.07;5.70;;;;;3.20;94767.00;;;;8434836;28;20195;-77
2022/11/21 18:10:15;;;;;;;13.30;5.60;;;;;3.30;94760.00;;;;8434698;28;20191;-76
2022/11/21 18:15:14;;;;;;;20.40;12.60;;;;;3.40;94759.00;;;;8434461;28;20225;-76
2022/11/21 18:19:53;;;;;;;12.13;5.30;;;;;3.50;94753.00;;;;8435524;28;20533;-77
2022/11/21 18:24:27;;;;;;;9.40;5.93;;;;;3.50;94745.00;;;;8433459;28;20202;-77
2022/11/21 18:28:31;;;;;;;18.07;12.70;;;;;3.50;94748.00;;;;8433976;28;20218;-78
2022/11/21 18:32:34;;;;;;;11.63;5.67;;;;;3.50;94751.00;;;;8433870;28;20198;-77
2022/11/21 18:36:38;;;;;;;14.23;5.73;;;;;3.50;94744.00;;;;8433744;28;20218;-78
2022/11/21 18:41:13;;;;;;;10.77;5.17;;;;;3.50;94746.00;;;;8425265;28;20199;-79
2022/11/21 18:45:46;;;;;;;9.13;5.63;;;;;3.50;94746.00;;;;8432613;28;20216;-76
2022/11/21 18:50:23;;;;;;;10.67;5.77;;;;;3.40;94737.00;;;;8434482;28;20624;-73
2022/11/21 18:55:01;;;;;;;13.63;6.17;;;;;3.30;94724.00;;;;8432859;28;20216;-80
2022/11/21 18:59:35;;;;;;;16.90;8.03;;;;;3.30;94720.00;;;;8432890;28;20203;-76
2022/11/21 19:04:13;;;;;;;13.83;7.23;;;;;3.30;94714.00;;;;8433465;28;20232;-77
2022/11/21 19:08:51;;;;;;;14.93;6.57;;;;;3.20;94699.00;;;;8433615;28;20255;-77
2022/11/21 19:13:28;;;;;;;12.50;5.87;;;;;3.20;94685.00;;;;8432061;28;20195;-76
2022/11/21 19:18:02;;;;;;;14.77;6.30;;;;;3.20;94680.00;;;;8432980;28;20195;-76
2022/11/21 19:22:39;;;;;;;20.50;6.43;;;;;3.10;94684.00;;;;8431707;28;20191;-76
2022/11/21 19:27:15;;;;;;;11.23;6.47;;;;;3.10;94677.00;;;;8431649;28;20215;-77
2022/11/21 19:31:54;;;;;;;9.87;5.80;;;;;3.10;94667.00;;;;8431731;28;20270;-75
2022/11/21 19:36:28;;;;;;;21.50;7.43;;;;;3.10;94668.00;;;;8430478;28;20235;-76
2022/11/21 19:41:18;;;;;;;12.47;7.33;;;;;3.10;94672.00;;;;8431896;28;20203;-76
2022/11/21 19:45:40;;;;;;;13.80;7.93;;;;;3.10;94666.00;;;;8432741;28;20711;-76
2022/11/21 19:50:19;;;;;;;20.07;8.20;;;;;3.10;94661.00;;;;8432498;28;20626;-77
2022/11/21 19:54:56;;;;;;;21.20;8.93;;;;;3.20;94658.00;;;;8430535;28;20223;-77
2022/11/21 19:59:32;;;;;;;17.23;8.93;;;;;3.20;94653.00;;;;8430947;28;20241;-76
2022/11/21 20:04:10;;;;;;;17.33;8.03;;;;;3.30;94638.00;;;;8431899;28;20632;-77
2022/11/21 20:08:48;;;;;;;17.60;9.07;;;;;3.30;94633.00;;;;8430387;28;20203;-77
2022/11/21 20:13:22;;;;;;;21.50;9.87;;;;;3.40;94623.00;;;;8430734;28;20242;-76
2022/11/21 20:17:25;;;;;;;23.23;10.00;;;;;3.50;94611.00;;;;8431209;28;20226;-77
2022/11/21 20:21:28;;;;;;;24.30;10.17;;;;;3.60;94610.00;;;;8431571;28;20574;-76
2022/11/21 20:26:04;;;;;;;23.33;10.60;;;;;3.60;94607.00;;;;8430269;28;20214;-78
2022/11/21 20:30:08;;;;;;;27.43;11.87;;;;;3.70;94595.00;;;;8431948;28;20553;-77
2022/11/21 20:34:45;;;;;;;25.80;11.43;;;;;3.70;94584.00;;;;8429676;28;20267;-77
2022/11/21 20:38:50;;;;;;;21.80;10.13;;;;;3.80;94580.00;;;;8430831;28;20284;-77
2022/11/21 20:43:29;;;;;;;27.77;11.50;;;;;3.80;94575.00;;;;8430679;28;20207;-77
2022/11/21 20:48:39;;;;;;;26.57;11.43;;;;;3.90;94575.00;;;;8433587;28;20217;-77
2022/11/21 20:53:13;;;;;;;31.90;12.43;;;;;3.90;94575.00;;;;8437629;28;20497;-77
2022/11/21 20:57:48;;;;;;;21.87;11.03;;;;;3.90;94559.00;;;;8436595;28;20225;-76
2022/11/21 21:02:26;;;;;;;26.93;12.03;;;;;4.00;94582.00;;;;8437495;28;20195;-77
2022/11/21 21:06:29;;;;;;;26.77;11.67;;;;;4.00;94577.00;;;;8436633;28;20315;-77
2022/11/21 21:10:32;;;;;;;30.63;11.97;;;;;4.00;94583.00;;;;8436726;28;20221;-77
2022/11/21 21:14:55;;;;;;;25.00;11.40;;;;;4.10;94570.00;;;;8437985;28;20214;-77
2022/11/21 21:19:02;;;;;;;31.50;12.83;;;;;4.10;94566.00;;;;8436408;28;20536;-76
2022/11/21 21:23:05;;;;;;;34.47;13.37;;;;;4.10;94550.00;;;;8439187;28;20209;-77
2022/11/21 21:27:12;;;;;;;35.43;14.13;;;;;4.10;94537.00;;;;8437119;28;20654;-77
2022/11/21 21:31:17;;;;;;;30.03;13.00;;;;;4.00;94532.00;;;;8436708;28;20188;-78
2022/11/21 21:35:52;;;;;;;28.60;11.70;;;;;4.00;94526.00;;;;8436583;28;20222;-78
2022/11/21 21:39:56;;;;;;;28.07;11.93;;;;;3.90;94529.00;;;;8436177;28;20188;-78
2022/11/21 21:43:59;;;;;;;25.80;11.10;;;;;3.90;94541.00;;;;8435713;28;20219;-77
2022/11/21 21:48:02;;;;;;;23.33;9.83;;;;;3.90;94540.00;;;;8435626;28;20196;-77
2022/11/21 21:52:07;;;;;;;24.47;10.37;;;;;3.90;94532.00;;;;8435459;28;20203;-77
2022/11/21 21:56:41;;;;;;;25.70;10.10;;;;;4.00;94527.00;;;;8435886;28;20249;-76
2022/11/21 22:00:44;;;;;;;19.53;8.37;;;;;4.00;94519.00;;;;8434750;28;20204;-77
2022/11/21 22:04:47;;;;;;;17.80;8.67;;;;;4.00;94529.00;;;;8435694;28;20636;-77
2022/11/21 22:08:56;;;;;;;24.30;8.20;;;;;4.00;94522.00;;;;8434563;28;20187;-77
2022/11/21 22:12:59;;;;;;;17.43;7.90;;;;;4.00;94532.00;;;;8434595;28;20697;-77
2022/11/21 22:17:02;;;;;;;15.13;7.47;;;;;4.00;94521.00;;;;8434356;28;20219;-77
2022/11/21 22:21:13;;;;;;;18.47;7.70;;;;;4.00;94520.00;;;;8435067;28;20293;-77
2022/11/21 22:25:17;;;;;;;13.67;7.33;;;;;4.00;94517.00;;;;8433407;28;20207;-77
2022/11/21 22:29:20;;;;;;;17.30;7.60;;;;;4.10;94521.00;;;;8434770;28;20207;-76
2022/11/21 22:33:57;;;;;;;13.93;7.10;;;;;4.00;94519.00;;;;8433829;28;20197;-78
2022/11/21 22:38:01;;;;;;;15.47;6.90;;;;;4.00;94515.00;;;;8434066;28;20218;-77
2022/11/21 22:42:05;;;;;;;18.33;7.50;;;;;4.00;94503.00;;;;8433442;28;20205;-76
2022/11/21 22:46:10;;;;;;;15.03;7.07;;;;;4.00;94499.00;;;;8434361;28;20203;-77
2022/11/21 22:50:44;;;;;;;16.37;6.73;;;;;4.00;94484.00;;;;8433427;28;20241;-76
2022/11/21 22:54:47;;;;;;;16.30;7.13;;;;;4.00;94469.00;;;;8433972;28;20537;-76
2022/11/21 22:58:52;;;;;;;15.10;5.93;;;;;4.00;94472.00;;;;8433117;28;20241;-76
2022/11/21 23:02:55;;;;;;;19.70;7.20;;;;;4.00;94483.00;;;;8432207;28;20199;-76
2022/11/21 23:06:58;;;;;;;20.73;7.10;;;;;4.00;94494.00;;;;8433219;28;20195;-76
2022/11/21 23:11:35;;;;;;;18.47;7.50;;;;;4.00;94494.00;;;;8432109;28;20197;-76
2022/11/21 23:15:44;;;;;;;16.27;7.83;;;;;4.00;94478.00;;;;8432533;28;20209;-76
2022/11/21 23:19:47;;;;;;;18.03;8.10;;;;;4.00;94479.00;;;;8433870;28;20306;-76
2022/11/21 23:23:50;;;;;;;15.33;7.80;;;;;4.00;94475.00;;;;8432315;28;20195;-76